sensor_id;sensor_type;location;lat;lon;timestamp;P1;durP1;ratioP1;P2;durP2;ratioP2
71947;SDS011;59820;55.076;38.766;2022-08-19T00:01:42;16.05;;;9.63;;
71947;SDS011;59820;55.076;38.766;2022-08-19T00:04:11;14.98;;;9.40;;
71947;SDS011;59820;55.076;38.766;2022-08-19T00:06:39;16.33;;;9.00;;
71947;SDS011;59820;55.076;38.766;2022-08-19T00:09:06;13.93;;;8.57;;
71947;SDS011;59820;55.076;38.766;2022-08-19T00:11:34;13.45;;;7.85;;
71947;SDS011;59820;55.076;38.766;2022-08-19T00:14:03;13.18;;;7.53;;
71947;SDS011;59820;55.076;38.766;2022-08-19T00:16:35;14.35;;;7.60;;
71947;SDS011;59820;55.076;38.766;2022-08-19T00:19:04;12.38;;;7.22;;
71947;SDS011;59820;55.076;38.766;2022-08-19T00:21:30;12.23;;;6.23;;
71947;SDS011;59820;55.076;38.766;2022-08-19T00:23:56;10.77;;;6.18;;
71947;SDS011;59820;55.076;38.766;2022-08-19T00:26:27;9.90;;;5.85;;
71947;SDS011;59820;55.076;38.766;2022-08-19T00:28:54;13.60;;;5.28;;
71947;SDS011;59820;55.076;38.766;2022-08-19T00:31:20;9.25;;;5.13;;
71947;SDS011;59820;55.076;38.766;2022-08-19T00:33:46;9.10;;;4.83;;
71947;SDS011;59820;55.076;38.766;2022-08-19T00:36:14;9.57;;;4.85;;
71947;SDS011;59820;55.076;38.766;2022-08-19T00:38:40;9.63;;;4.70;;
71947;SDS011;59820;55.076;38.766;2022-08-19T00:41:09;8.00;;;4.60;;
71947;SDS011;59820;55.076;38.766;2022-08-19T00:43:38;7.95;;;4.50;;
71947;SDS011;59820;55.076;38.766;2022-08-19T00:46:05;11.63;;;5.20;;
71947;SDS011;59820;55.076;38.766;2022-08-19T00:48:31;8.45;;;5.00;;
71947;SDS011;59820;55.076;38.766;2022-08-19T00:50:59;8.33;;;4.80;;
71947;SDS011;59820;55.076;38.766;2022-08-19T00:53:26;8.23;;;4.30;;
71947;SDS011;59820;55.076;38.766;2022-08-19T00:55:55;8.30;;;4.40;;
71947;SDS011;59820;55.076;38.766;2022-08-19T00:58:24;10.90;;;4.70;;
71947;SDS011;59820;55.076;38.766;2022-08-19T01:00:54;13.68;;;4.10;;
71947;SDS011;59820;55.076;38.766;2022-08-19T01:03:20;9.17;;;4.17;;
71947;SDS011;59820;55.076;38.766;2022-08-19T01:05:47;8.15;;;3.88;;
71947;SDS011;59820;55.076;38.766;2022-08-19T01:08:16;10.80;;;4.43;;
71947;SDS011;59820;55.076;38.766;2022-08-19T01:10:46;7.80;;;4.05;;
71947;SDS011;59820;55.076;38.766;2022-08-19T01:13:16;9.02;;;4.00;;
71947;SDS011;59820;55.076;38.766;2022-08-19T01:15:46;9.30;;;3.77;;
71947;SDS011;59820;55.076;38.766;2022-08-19T01:18:17;11.43;;;4.07;;
71947;SDS011;59820;55.076;38.766;2022-08-19T01:23:35;11.40;;;4.30;;
71947;SDS011;59820;55.076;38.766;2022-08-19T01:26:11;7.07;;;3.90;;
71947;SDS011;59820;55.076;38.766;2022-08-19T01:28:49;8.23;;;4.13;;
71947;SDS011;59820;55.076;38.766;2022-08-19T01:31:21;8.63;;;4.40;;
71947;SDS011;59820;55.076;38.766;2022-08-19T01:33:51;10.10;;;4.57;;
71947;SDS011;59820;55.076;38.766;2022-08-19T01:36:26;8.48;;;4.10;;
71947;SDS011;59820;55.076;38.766;2022-08-19T01:38:56;8.75;;;3.97;;
71947;SDS011;59820;55.076;38.766;2022-08-19T01:41:23;10.33;;;4.60;;
71947;SDS011;59820;55.076;38.766;2022-08-19T01:43:50;9.00;;;4.22;;
71947;SDS011;59820;55.076;38.766;2022-08-19T01:46:17;10.00;;;4.70;;
71947;SDS011;59820;55.076;38.766;2022-08-19T01:48:45;9.48;;;4.60;;
71947;SDS011;59820;55.076;38.766;2022-08-19T01:51:11;7.57;;;4.45;;
71947;SDS011;59820;55.076;38.766;2022-08-19T01:53:39;7.47;;;4.10;;
71947;SDS011;59820;55.076;38.766;2022-08-19T01:56:05;8.05;;;4.43;;
71947;SDS011;59820;55.076;38.766;2022-08-19T01:58:34;7.65;;;4.53;;
71947;SDS011;59820;55.076;38.766;2022-08-19T02:01:06;10.68;;;4.63;;
71947;SDS011;59820;55.076;38.766;2022-08-19T02:03:33;10.02;;;4.65;;
71947;SDS011;59820;55.076;38.766;2022-08-19T02:06:01;9.27;;;4.60;;
71947;SDS011;59820;55.076;38.766;2022-08-19T02:08:28;10.20;;;4.90;;
71947;SDS011;59820;55.076;38.766;2022-08-19T02:10:56;8.35;;;4.53;;
71947;SDS011;59820;55.076;38.766;2022-08-19T02:13:23;7.78;;;4.35;;
71947;SDS011;59820;55.076;38.766;2022-08-19T02:16:10;9.68;;;4.22;;
71947;SDS011;59820;55.076;38.766;2022-08-19T02:18:36;9.03;;;4.73;;
71947;SDS011;59820;55.076;38.766;2022-08-19T02:21:02;9.57;;;4.22;;
71947;SDS011;59820;55.076;38.766;2022-08-19T02:23:28;8.27;;;4.05;;
71947;SDS011;59820;55.076;38.766;2022-08-19T02:25:54;8.73;;;3.97;;
71947;SDS011;59820;55.076;38.766;2022-08-19T02:28:20;7.97;;;4.10;;
71947;SDS011;59820;55.076;38.766;2022-08-19T02:30:46;8.67;;;4.30;;
71947;SDS011;59820;55.076;38.766;2022-08-19T02:33:13;10.57;;;4.10;;
71947;SDS011;59820;55.076;38.766;2022-08-19T02:39:21;6.78;;;3.75;;
71947;SDS011;59820;55.076;38.766;2022-08-19T02:41:47;8.35;;;3.92;;
71947;SDS011;59820;55.076;38.766;2022-08-19T02:44:14;9.20;;;4.03;;
71947;SDS011;59820;55.076;38.766;2022-08-19T02:46:41;7.10;;;4.22;;
71947;SDS011;59820;55.076;38.766;2022-08-19T02:49:08;9.38;;;3.70;;
71947;SDS011;59820;55.076;38.766;2022-08-19T02:51:35;10.05;;;4.03;;
71947;SDS011;59820;55.076;38.766;2022-08-19T02:54:04;9.17;;;4.50;;
71947;SDS011;59820;55.076;38.766;2022-08-19T02:56:31;9.15;;;3.70;;
71947;SDS011;59820;55.076;38.766;2022-08-19T02:59:00;8.70;;;3.88;;
71947;SDS011;59820;55.076;38.766;2022-08-19T03:01:30;7.97;;;3.88;;
71947;SDS011;59820;55.076;38.766;2022-08-19T03:03:59;38.25;;;6.68;;
71947;SDS011;59820;55.076;38.766;2022-08-19T03:06:26;11.17;;;4.70;;
71947;SDS011;59820;55.076;38.766;2022-08-19T03:08:53;7.82;;;4.07;;
71947;SDS011;59820;55.076;38.766;2022-08-19T03:13:55;10.13;;;3.97;;
71947;SDS011;59820;55.076;38.766;2022-08-19T03:16:23;8.73;;;4.25;;
71947;SDS011;59820;55.076;38.766;2022-08-19T03:18:51;9.83;;;4.20;;
71947;SDS011;59820;55.076;38.766;2022-08-19T03:21:24;11.82;;;3.78;;
71947;SDS011;59820;55.076;38.766;2022-08-19T03:24:00;11.50;;;4.43;;
71947;SDS011;59820;55.076;38.766;2022-08-19T03:26:28;8.70;;;4.28;;
71947;SDS011;59820;55.076;38.766;2022-08-19T03:28:56;8.88;;;5.00;;
71947;SDS011;59820;55.076;38.766;2022-08-19T03:31:22;7.83;;;4.43;;
71947;SDS011;59820;55.076;38.766;2022-08-19T03:33:50;8.50;;;4.25;;
71947;SDS011;59820;55.076;38.766;2022-08-19T03:36:21;8.35;;;4.03;;
71947;SDS011;59820;55.076;38.766;2022-08-19T03:38:51;8.27;;;3.78;;
71947;SDS011;59820;55.076;38.766;2022-08-19T03:41:21;9.25;;;4.18;;
71947;SDS011;59820;55.076;38.766;2022-08-19T03:43:50;7.33;;;3.90;;
71947;SDS011;59820;55.076;38.766;2022-08-19T03:46:17;7.97;;;4.22;;
71947;SDS011;59820;55.076;38.766;2022-08-19T03:48:50;10.90;;;4.03;;
71947;SDS011;59820;55.076;38.766;2022-08-19T03:51:28;9.30;;;4.15;;
71947;SDS011;59820;55.076;38.766;2022-08-19T03:54:01;8.93;;;4.20;;
71947;SDS011;59820;55.076;38.766;2022-08-19T04:00:42;9.20;;;4.03;;
71947;SDS011;59820;55.076;38.766;2022-08-19T04:03:08;11.85;;;4.18;;
71947;SDS011;59820;55.076;38.766;2022-08-19T04:12:06;7.60;;;4.33;;
71947;SDS011;59820;55.076;38.766;2022-08-19T04:14:33;8.93;;;4.50;;
71947;SDS011;59820;55.076;38.766;2022-08-19T04:16:59;11.35;;;3.97;;
71947;SDS011;59820;55.076;38.766;2022-08-19T04:19:30;10.27;;;4.40;;
71947;SDS011;59820;55.076;38.766;2022-08-19T04:21:57;11.85;;;5.28;;
71947;SDS011;59820;55.076;38.766;2022-08-19T04:24:23;7.73;;;3.97;;
71947;SDS011;59820;55.076;38.766;2022-08-19T04:26:50;8.93;;;4.40;;
71947;SDS011;59820;55.076;38.766;2022-08-19T04:29:18;11.45;;;4.97;;
71947;SDS011;59820;55.076;38.766;2022-08-19T04:31:47;9.05;;;4.03;;
71947;SDS011;59820;55.076;38.766;2022-08-19T04:34:16;10.48;;;3.80;;
71947;SDS011;59820;55.076;38.766;2022-08-19T04:36:48;7.57;;;4.00;;
71947;SDS011;59820;55.076;38.766;2022-08-19T04:39:20;9.80;;;4.32;;
71947;SDS011;59820;55.076;38.766;2022-08-19T04:42:08;10.65;;;4.65;;
71947;SDS011;59820;55.076;38.766;2022-08-19T04:49:12;9.00;;;4.88;;
71947;SDS011;59820;55.076;38.766;2022-08-19T04:51:39;10.47;;;5.00;;
71947;SDS011;59820;55.076;38.766;2022-08-19T04:54:07;16.08;;;6.07;;
71947;SDS011;59820;55.076;38.766;2022-08-19T04:56:34;9.68;;;5.47;;
71947;SDS011;59820;55.076;38.766;2022-08-19T05:01:50;9.43;;;5.30;;
71947;SDS011;59820;55.076;38.766;2022-08-19T05:04:19;12.02;;;4.93;;
71947;SDS011;59820;55.076;38.766;2022-08-19T05:06:49;11.63;;;4.55;;
71947;SDS011;59820;55.076;38.766;2022-08-19T05:16:53;9.73;;;5.40;;
71947;SDS011;59820;55.076;38.766;2022-08-19T05:19:21;11.50;;;5.28;;
71947;SDS011;59820;55.076;38.766;2022-08-19T05:22:05;14.73;;;5.97;;
71947;SDS011;59820;55.076;38.766;2022-08-19T05:37:05;9.77;;;5.47;;
71947;SDS011;59820;55.076;38.766;2022-08-19T05:43:51;15.07;;;6.53;;
71947;SDS011;59820;55.076;38.766;2022-08-19T05:46:18;10.10;;;6.70;;
71947;SDS011;59820;55.076;38.766;2022-08-19T05:48:45;11.60;;;6.45;;
71947;SDS011;59820;55.076;38.766;2022-08-19T05:51:11;11.95;;;6.65;;
71947;SDS011;59820;55.076;38.766;2022-08-19T05:53:38;13.40;;;7.25;;
71947;SDS011;59820;55.076;38.766;2022-08-19T05:56:06;12.88;;;6.40;;
71947;SDS011;59820;55.076;38.766;2022-08-19T05:58:37;12.70;;;6.70;;
71947;SDS011;59820;55.076;38.766;2022-08-19T06:01:04;10.88;;;6.82;;
71947;SDS011;59820;55.076;38.766;2022-08-19T06:06:27;14.85;;;6.68;;
71947;SDS011;59820;55.076;38.766;2022-08-19T06:09:03;13.45;;;6.32;;
71947;SDS011;59820;55.076;38.766;2022-08-19T06:11:35;11.77;;;6.00;;
71947;SDS011;59820;55.076;38.766;2022-08-19T06:14:14;12.05;;;5.90;;
71947;SDS011;59820;55.076;38.766;2022-08-19T06:16:46;13.40;;;6.25;;
71947;SDS011;59820;55.076;38.766;2022-08-19T06:19:13;11.43;;;6.00;;
71947;SDS011;59820;55.076;38.766;2022-08-19T06:21:44;10.40;;;5.80;;
71947;SDS011;59820;55.076;38.766;2022-08-19T06:24:24;15.30;;;6.07;;
71947;SDS011;59820;55.076;38.766;2022-08-19T06:26:53;14.85;;;6.20;;
71947;SDS011;59820;55.076;38.766;2022-08-19T06:29:24;13.88;;;6.03;;
71947;SDS011;59820;55.076;38.766;2022-08-19T06:36:01;10.63;;;5.70;;
71947;SDS011;59820;55.076;38.766;2022-08-19T06:38:31;9.40;;;5.60;;
71947;SDS011;59820;55.076;38.766;2022-08-19T06:41:01;9.27;;;5.57;;
71947;SDS011;59820;55.076;38.766;2022-08-19T06:43:34;10.20;;;6.00;;
71947;SDS011;59820;55.076;38.766;2022-08-19T06:48:56;12.25;;;5.57;;
71947;SDS011;59820;55.076;38.766;2022-08-19T06:51:22;13.27;;;5.40;;
71947;SDS011;59820;55.076;38.766;2022-08-19T06:53:50;10.60;;;5.10;;
71947;SDS011;59820;55.076;38.766;2022-08-19T06:56:19;11.40;;;5.72;;
71947;SDS011;59820;55.076;38.766;2022-08-19T07:01:52;9.27;;;5.00;;
71947;SDS011;59820;55.076;38.766;2022-08-19T07:04:26;11.30;;;5.40;;
71947;SDS011;59820;55.076;38.766;2022-08-19T07:07:01;8.82;;;5.07;;
71947;SDS011;59820;55.076;38.766;2022-08-19T07:09:32;13.38;;;5.30;;
71947;SDS011;59820;55.076;38.766;2022-08-19T07:12:04;13.50;;;5.65;;
71947;SDS011;59820;55.076;38.766;2022-08-19T07:14:33;11.30;;;5.50;;
71947;SDS011;59820;55.076;38.766;2022-08-19T07:17:03;13.73;;;5.10;;
71947;SDS011;59820;55.076;38.766;2022-08-19T07:22:28;10.80;;;5.15;;
71947;SDS011;59820;55.076;38.766;2022-08-19T07:24:54;10.20;;;5.20;;
71947;SDS011;59820;55.076;38.766;2022-08-19T07:27:21;8.32;;;5.20;;
71947;SDS011;59820;55.076;38.766;2022-08-19T07:29:57;11.13;;;5.17;;
71947;SDS011;59820;55.076;38.766;2022-08-19T07:35:40;9.70;;;4.40;;
71947;SDS011;59820;55.076;38.766;2022-08-19T07:38:21;14.70;;;5.10;;
71947;SDS011;59820;55.076;38.766;2022-08-19T07:43:40;10.30;;;4.50;;
71947;SDS011;59820;55.076;38.766;2022-08-19T07:46:08;14.15;;;4.75;;
71947;SDS011;59820;55.076;38.766;2022-08-19T07:48:42;11.02;;;5.05;;
71947;SDS011;59820;55.076;38.766;2022-08-19T07:51:15;11.65;;;4.68;;
71947;SDS011;59820;55.076;38.766;2022-08-19T07:53:49;13.95;;;4.80;;
71947;SDS011;59820;55.076;38.766;2022-08-19T07:56:17;9.40;;;4.47;;
71947;SDS011;59820;55.076;38.766;2022-08-19T07:58:45;12.65;;;4.93;;
71947;SDS011;59820;55.076;38.766;2022-08-19T08:01:17;8.73;;;4.60;;
71947;SDS011;59820;55.076;38.766;2022-08-19T08:03:47;13.63;;;4.55;;
71947;SDS011;59820;55.076;38.766;2022-08-19T08:06:32;17.27;;;5.10;;
71947;SDS011;59820;55.076;38.766;2022-08-19T08:09:19;12.80;;;4.60;;
71947;SDS011;59820;55.076;38.766;2022-08-19T08:11:59;13.20;;;4.55;;
71947;SDS011;59820;55.076;38.766;2022-08-19T08:17:16;10.77;;;4.30;;
71947;SDS011;59820;55.076;38.766;2022-08-19T08:28:28;12.32;;;5.00;;
71947;SDS011;59820;55.076;38.766;2022-08-19T08:30:56;10.10;;;4.30;;
71947;SDS011;59820;55.076;38.766;2022-08-19T08:33:24;11.05;;;4.55;;
71947;SDS011;59820;55.076;38.766;2022-08-19T08:44:15;12.32;;;4.30;;
71947;SDS011;59820;55.076;38.766;2022-08-19T08:52:20;9.00;;;4.05;;
71947;SDS011;59820;55.076;38.766;2022-08-19T08:54:59;7.38;;;4.05;;
71947;SDS011;59820;55.076;38.766;2022-08-19T08:57:39;10.73;;;4.63;;
71947;SDS011;59820;55.076;38.766;2022-08-19T09:00:08;10.38;;;4.13;;
71947;SDS011;59820;55.076;38.766;2022-08-19T09:02:39;9.95;;;4.05;;
71947;SDS011;59820;55.076;38.766;2022-08-19T09:05:06;7.15;;;3.88;;
71947;SDS011;59820;55.076;38.766;2022-08-19T09:12:46;7.95;;;4.20;;
71947;SDS011;59820;55.076;38.766;2022-08-19T09:15:25;9.88;;;4.18;;
71947;SDS011;59820;55.076;38.766;2022-08-19T09:18:03;11.35;;;4.25;;
71947;SDS011;59820;55.076;38.766;2022-08-19T09:20:31;11.05;;;4.20;;
71947;SDS011;59820;55.076;38.766;2022-08-19T09:22:58;8.20;;;4.32;;
71947;SDS011;59820;55.076;38.766;2022-08-19T09:25:25;12.48;;;4.07;;
71947;SDS011;59820;55.076;38.766;2022-08-19T09:27:52;8.88;;;4.32;;
71947;SDS011;59820;55.076;38.766;2022-08-19T09:30:20;7.35;;;4.35;;
71947;SDS011;59820;55.076;38.766;2022-08-19T09:32:49;12.90;;;4.88;;
71947;SDS011;59820;55.076;38.766;2022-08-19T09:35:20;7.10;;;4.20;;
71947;SDS011;59820;55.076;38.766;2022-08-19T09:37:47;8.50;;;4.40;;
71947;SDS011;59820;55.076;38.766;2022-08-19T09:40:18;9.13;;;4.43;;
71947;SDS011;59820;55.076;38.766;2022-08-19T09:42:44;8.63;;;4.18;;
71947;SDS011;59820;55.076;38.766;2022-08-19T09:45:14;8.85;;;4.30;;
71947;SDS011;59820;55.076;38.766;2022-08-19T09:47:42;9.50;;;4.40;;
71947;SDS011;59820;55.076;38.766;2022-08-19T09:50:12;9.00;;;4.10;;
71947;SDS011;59820;55.076;38.766;2022-08-19T09:52:38;11.95;;;6.10;;
71947;SDS011;59820;55.076;38.766;2022-08-19T09:55:05;10.60;;;6.90;;
71947;SDS011;59820;55.076;38.766;2022-08-19T09:57:33;12.88;;;7.60;;
71947;SDS011;59820;55.076;38.766;2022-08-19T09:59:59;13.05;;;8.60;;
71947;SDS011;59820;55.076;38.766;2022-08-19T10:02:25;15.25;;;9.40;;
71947;SDS011;59820;55.076;38.766;2022-08-19T10:04:51;13.05;;;8.23;;
71947;SDS011;59820;55.076;38.766;2022-08-19T10:07:36;13.80;;;8.70;;
71947;SDS011;59820;55.076;38.766;2022-08-19T10:10:03;10.18;;;7.93;;
71947;SDS011;59820;55.076;38.766;2022-08-19T10:12:32;13.93;;;9.15;;
71947;SDS011;59820;55.076;38.766;2022-08-19T10:15:00;15.50;;;9.60;;
71947;SDS011;59820;55.076;38.766;2022-08-19T10:20:21;20.52;;;15.23;;
71947;SDS011;59820;55.076;38.766;2022-08-19T10:22:48;31.15;;;16.63;;
71947;SDS011;59820;55.076;38.766;2022-08-19T10:25:15;23.80;;;17.37;;
71947;SDS011;59820;55.076;38.766;2022-08-19T10:27:42;24.55;;;17.02;;
71947;SDS011;59820;55.076;38.766;2022-08-19T10:30:08;22.33;;;18.63;;
71947;SDS011;59820;55.076;38.766;2022-08-19T10:32:35;23.70;;;18.58;;
71947;SDS011;59820;55.076;38.766;2022-08-19T10:35:04;23.55;;;17.63;;
71947;SDS011;59820;55.076;38.766;2022-08-19T10:41:53;22.95;;;17.38;;
71947;SDS011;59820;55.076;38.766;2022-08-19T10:49:48;22.98;;;14.05;;
71947;SDS011;59820;55.076;38.766;2022-08-19T10:52:33;20.30;;;14.77;;
71947;SDS011;59820;55.076;38.766;2022-08-19T11:01:00;22.38;;;15.38;;
71947;SDS011;59820;55.076;38.766;2022-08-19T11:03:27;18.30;;;13.50;;
71947;SDS011;59820;55.076;38.766;2022-08-19T11:08:48;23.35;;;12.57;;
71947;SDS011;59820;55.076;38.766;2022-08-19T11:11:18;15.80;;;10.02;;
71947;SDS011;59820;55.076;38.766;2022-08-19T11:13:51;16.83;;;11.65;;
71947;SDS011;59820;55.076;38.766;2022-08-19T11:16:19;20.48;;;9.90;;
71947;SDS011;59820;55.076;38.766;2022-08-19T11:18:48;20.73;;;10.88;;
71947;SDS011;59820;55.076;38.766;2022-08-19T11:21:17;18.48;;;10.23;;
71947;SDS011;59820;55.076;38.766;2022-08-19T11:23:47;18.25;;;11.18;;
71947;SDS011;59820;55.076;38.766;2022-08-19T11:29:27;12.85;;;8.57;;
71947;SDS011;59820;55.076;38.766;2022-08-19T11:34:45;14.10;;;8.00;;
71947;SDS011;59820;55.076;38.766;2022-08-19T11:37:11;13.63;;;8.35;;
71947;SDS011;59820;55.076;38.766;2022-08-19T11:39:37;22.00;;;11.15;;
71947;SDS011;59820;55.076;38.766;2022-08-19T11:42:04;19.20;;;11.75;;
71947;SDS011;59820;55.076;38.766;2022-08-19T11:44:51;20.50;;;12.30;;
71947;SDS011;59820;55.076;38.766;2022-08-19T11:47:21;17.85;;;11.48;;
71947;SDS011;59820;55.076;38.766;2022-08-19T11:49:47;17.35;;;12.00;;
71947;SDS011;59820;55.076;38.766;2022-08-19T11:52:14;19.40;;;14.32;;
71947;SDS011;59820;55.076;38.766;2022-08-19T11:57:10;21.92;;;16.05;;
71947;SDS011;59820;55.076;38.766;2022-08-19T11:59:35;25.42;;;15.77;;
71947;SDS011;59820;55.076;38.766;2022-08-19T12:02:02;24.77;;;15.23;;
71947;SDS011;59820;55.076;38.766;2022-08-19T12:04:32;23.42;;;15.38;;
71947;SDS011;59820;55.076;38.766;2022-08-19T12:06:58;23.38;;;16.23;;
71947;SDS011;59820;55.076;38.766;2022-08-19T12:09:23;22.83;;;16.87;;
71947;SDS011;59820;55.076;38.766;2022-08-19T12:11:49;22.45;;;16.80;;
71947;SDS011;59820;55.076;38.766;2022-08-19T12:14:17;23.73;;;15.55;;
71947;SDS011;59820;55.076;38.766;2022-08-19T12:17:01;21.75;;;15.35;;
71947;SDS011;59820;55.076;38.766;2022-08-19T12:19:29;24.97;;;15.53;;
71947;SDS011;59820;55.076;38.766;2022-08-19T12:21:58;24.10;;;15.30;;
71947;SDS011;59820;55.076;38.766;2022-08-19T12:24:36;21.45;;;15.02;;
71947;SDS011;59820;55.076;38.766;2022-08-19T12:27:03;23.80;;;16.38;;
71947;SDS011;59820;55.076;38.766;2022-08-19T12:32:02;19.25;;;14.27;;
71947;SDS011;59820;55.076;38.766;2022-08-19T12:34:32;19.25;;;13.93;;
71947;SDS011;59820;55.076;38.766;2022-08-19T12:37:00;20.52;;;12.50;;
71947;SDS011;59820;55.076;38.766;2022-08-19T12:39:27;21.15;;;12.45;;
71947;SDS011;59820;55.076;38.766;2022-08-19T12:41:56;21.30;;;11.73;;
71947;SDS011;59820;55.076;38.766;2022-08-19T12:44:23;24.38;;;13.18;;
71947;SDS011;59820;55.076;38.766;2022-08-19T12:46:53;19.83;;;12.98;;
71947;SDS011;59820;55.076;38.766;2022-08-19T12:49:19;22.33;;;15.68;;
71947;SDS011;59820;55.076;38.766;2022-08-19T12:51:45;25.70;;;18.13;;
71947;SDS011;59820;55.076;38.766;2022-08-19T12:54:18;22.92;;;17.20;;
71947;SDS011;59820;55.076;38.766;2022-08-19T12:56:48;22.25;;;16.75;;
71947;SDS011;59820;55.076;38.766;2022-08-19T12:59:16;21.33;;;14.85;;
71947;SDS011;59820;55.076;38.766;2022-08-19T13:01:45;24.85;;;14.05;;
71947;SDS011;59820;55.076;38.766;2022-08-19T13:04:11;19.70;;;12.90;;
71947;SDS011;59820;55.076;38.766;2022-08-19T13:06:36;18.55;;;12.25;;
71947;SDS011;59820;55.076;38.766;2022-08-19T13:09:04;19.10;;;11.88;;
71947;SDS011;59820;55.076;38.766;2022-08-19T13:11:30;19.58;;;11.80;;
71947;SDS011;59820;55.076;38.766;2022-08-19T13:17:03;20.63;;;12.55;;
71947;SDS011;59820;55.076;38.766;2022-08-19T13:19:30;29.05;;;16.65;;
71947;SDS011;59820;55.076;38.766;2022-08-19T13:21:57;26.55;;;20.42;;
71947;SDS011;59820;55.076;38.766;2022-08-19T13:24:24;29.27;;;23.30;;
71947;SDS011;59820;55.076;38.766;2022-08-19T13:26:50;37.13;;;24.77;;
71947;SDS011;59820;55.076;38.766;2022-08-19T13:29:16;34.88;;;23.58;;
71947;SDS011;59820;55.076;38.766;2022-08-19T13:32:01;35.33;;;25.50;;
71947;SDS011;59820;55.076;38.766;2022-08-19T13:34:45;22.90;;;15.40;;
71947;SDS011;59820;55.076;38.766;2022-08-19T13:37:13;21.58;;;13.82;;
71947;SDS011;59820;55.076;38.766;2022-08-19T13:39:39;23.13;;;12.02;;
71947;SDS011;59820;55.076;38.766;2022-08-19T13:42:06;13.98;;;10.60;;
71947;SDS011;59820;55.076;38.766;2022-08-19T13:44:33;15.43;;;9.40;;
71947;SDS011;59820;55.076;38.766;2022-08-19T13:47:03;12.60;;;8.70;;
71947;SDS011;59820;55.076;38.766;2022-08-19T13:49:35;12.25;;;7.63;;
71947;SDS011;59820;55.076;38.766;2022-08-19T13:52:02;16.50;;;8.75;;
71947;SDS011;59820;55.076;38.766;2022-08-19T13:54:29;13.18;;;7.60;;
71947;SDS011;59820;55.076;38.766;2022-08-19T13:56:56;16.43;;;6.13;;
71947;SDS011;59820;55.076;38.766;2022-08-19T13:59:22;15.88;;;7.07;;
71947;SDS011;59820;55.076;38.766;2022-08-19T14:01:48;11.55;;;7.20;;
71947;SDS011;59820;55.076;38.766;2022-08-19T14:04:14;15.17;;;7.50;;
71947;SDS011;59820;55.076;38.766;2022-08-19T14:06:40;9.85;;;6.82;;
71947;SDS011;59820;55.076;38.766;2022-08-19T14:09:06;10.65;;;5.43;;
71947;SDS011;59820;55.076;38.766;2022-08-19T14:11:35;11.17;;;6.13;;
71947;SDS011;59820;55.076;38.766;2022-08-19T14:14:01;12.07;;;5.50;;
71947;SDS011;59820;55.076;38.766;2022-08-19T14:16:27;11.30;;;5.25;;
71947;SDS011;59820;55.076;38.766;2022-08-19T14:18:55;14.18;;;4.95;;
71947;SDS011;59820;55.076;38.766;2022-08-19T14:21:22;10.82;;;4.93;;
71947;SDS011;59820;55.076;38.766;2022-08-19T14:23:51;11.07;;;5.33;;
71947;SDS011;59820;55.076;38.766;2022-08-19T14:26:18;11.18;;;5.13;;
71947;SDS011;59820;55.076;38.766;2022-08-19T14:28:59;12.50;;;5.78;;
71947;SDS011;59820;55.076;38.766;2022-08-19T14:31:26;18.55;;;7.22;;
71947;SDS011;59820;55.076;38.766;2022-08-19T14:33:53;13.90;;;6.60;;
71947;SDS011;59820;55.076;38.766;2022-08-19T14:36:20;14.50;;;6.90;;
71947;SDS011;59820;55.076;38.766;2022-08-19T14:38:47;10.43;;;6.40;;
71947;SDS011;59820;55.076;38.766;2022-08-19T14:43:48;12.43;;;6.88;;
71947;SDS011;59820;55.076;38.766;2022-08-19T14:46:18;17.33;;;6.70;;
71947;SDS011;59820;55.076;38.766;2022-08-19T14:48:46;13.20;;;6.03;;
71947;SDS011;59820;55.076;38.766;2022-08-19T14:51:14;13.80;;;5.30;;
71947;SDS011;59820;55.076;38.766;2022-08-19T14:53:40;12.38;;;5.10;;
71947;SDS011;59820;55.076;38.766;2022-08-19T14:56:10;11.18;;;5.10;;
71947;SDS011;59820;55.076;38.766;2022-08-19T14:58:38;12.55;;;4.90;;
71947;SDS011;59820;55.076;38.766;2022-08-19T15:01:06;12.63;;;4.30;;
71947;SDS011;59820;55.076;38.766;2022-08-19T15:03:33;16.50;;;4.53;;
71947;SDS011;59820;55.076;38.766;2022-08-19T15:06:00;15.35;;;4.53;;
71947;SDS011;59820;55.076;38.766;2022-08-19T15:08:28;11.32;;;4.05;;
71947;SDS011;59820;55.076;38.766;2022-08-19T15:10:55;18.50;;;4.40;;
71947;SDS011;59820;55.076;38.766;2022-08-19T15:13:22;7.17;;;3.87;;
71947;SDS011;59820;55.076;38.766;2022-08-19T15:15:50;8.95;;;4.00;;
71947;SDS011;59820;55.076;38.766;2022-08-19T15:18:17;11.38;;;4.28;;
71947;SDS011;59820;55.076;38.766;2022-08-19T15:20:43;11.65;;;4.07;;
71947;SDS011;59820;55.076;38.766;2022-08-19T15:23:10;10.70;;;4.60;;
71947;SDS011;59820;55.076;38.766;2022-08-19T15:25:36;16.63;;;4.80;;
71947;SDS011;59820;55.076;38.766;2022-08-19T15:28:03;7.88;;;4.03;;
71947;SDS011;59820;55.076;38.766;2022-08-19T15:30:29;9.57;;;4.30;;
71947;SDS011;59820;55.076;38.766;2022-08-19T15:32:56;13.07;;;4.55;;
71947;SDS011;59820;55.076;38.766;2022-08-19T15:35:24;13.80;;;4.67;;
71947;SDS011;59820;55.076;38.766;2022-08-19T15:37:51;13.25;;;4.30;;
71947;SDS011;59820;55.076;38.766;2022-08-19T15:40:19;9.80;;;4.40;;
71947;SDS011;59820;55.076;38.766;2022-08-19T15:42:47;13.32;;;4.68;;
71947;SDS011;59820;55.076;38.766;2022-08-19T15:45:14;12.68;;;5.20;;
71947;SDS011;59820;55.076;38.766;2022-08-19T15:47:44;9.83;;;4.30;;
71947;SDS011;59820;55.076;38.766;2022-08-19T15:50:12;8.40;;;4.97;;
71947;SDS011;59820;55.076;38.766;2022-08-19T15:52:45;11.88;;;4.78;;
71947;SDS011;59820;55.076;38.766;2022-08-19T15:55:19;9.00;;;4.15;;
71947;SDS011;59820;55.076;38.766;2022-08-19T15:57:47;10.88;;;4.68;;
71947;SDS011;59820;55.076;38.766;2022-08-19T16:00:31;11.03;;;4.83;;
71947;SDS011;59820;55.076;38.766;2022-08-19T16:03:16;11.90;;;4.68;;
71947;SDS011;59820;55.076;38.766;2022-08-19T16:06:01;10.02;;;4.47;;
71947;SDS011;59820;55.076;38.766;2022-08-19T16:08:46;13.20;;;4.03;;
71947;SDS011;59820;55.076;38.766;2022-08-19T16:11:18;9.63;;;4.63;;
71947;SDS011;59820;55.076;38.766;2022-08-19T16:13:47;11.57;;;4.27;;
71947;SDS011;59820;55.076;38.766;2022-08-19T16:16:18;10.07;;;4.05;;
71947;SDS011;59820;55.076;38.766;2022-08-19T16:18:50;9.63;;;4.10;;
71947;SDS011;59820;55.076;38.766;2022-08-19T16:21:19;13.48;;;4.65;;
71947;SDS011;59820;55.076;38.766;2022-08-19T16:23:46;10.65;;;4.03;;
71947;SDS011;59820;55.076;38.766;2022-08-19T16:26:14;12.80;;;5.03;;
71947;SDS011;59820;55.076;38.766;2022-08-19T16:28:42;10.95;;;4.55;;
71947;SDS011;59820;55.076;38.766;2022-08-19T16:31:09;12.02;;;4.90;;
71947;SDS011;59820;55.076;38.766;2022-08-19T16:33:35;10.30;;;4.18;;
71947;SDS011;59820;55.076;38.766;2022-08-19T16:36:01;13.50;;;4.50;;
71947;SDS011;59820;55.076;38.766;2022-08-19T16:38:28;12.60;;;4.40;;
71947;SDS011;59820;55.076;38.766;2022-08-19T16:40:54;14.07;;;4.45;;
71947;SDS011;59820;55.076;38.766;2022-08-19T16:47:39;13.23;;;4.55;;
71947;SDS011;59820;55.076;38.766;2022-08-19T16:50:05;9.95;;;4.47;;
71947;SDS011;59820;55.076;38.766;2022-08-19T16:52:33;9.35;;;4.75;;
71947;SDS011;59820;55.076;38.766;2022-08-19T16:55:02;9.88;;;4.10;;
71947;SDS011;59820;55.076;38.766;2022-08-19T16:57:36;10.68;;;4.43;;
71947;SDS011;59820;55.076;38.766;2022-08-19T17:00:03;7.20;;;4.10;;
71947;SDS011;59820;55.076;38.766;2022-08-19T17:02:34;9.33;;;4.63;;